Anchorage/Lake Hood Seaplane Base, Alaska
Current Conditions -  °F | °C
As of 12:53 AM on Wednesday 22 Oct 2014 (Local Time) from PALH Reporting Station
Clear Clear  
Wind Chill: 30°   Ceiling: Unl
Heat Index: 30°   Visibility: 10mi
Dew Point: 25°   Wind: 0mph
Humidity: 82%   Direction: NA
Pressure: 29.24"   Gusts: NA
Location:  61.18°N, 149.97°W
Report Text: PALH 220853Z 00000KT 10SM CLR M01/M04 A2924 RMK AO2 SLP901 T10111039 400501011 53001
Loading
Personal Weather Stations






























Interactive Weather Map
Tropical Storm Tracking
New forecast layout! Learn more

10-Day Weather Forecast

Advertisements
Track Severe Weather on mobile